Latest Weather Observations for Eucla

IDW60801

Issued at 9:35 pm WST Monday 24 November 2014 (issued every 30 minutes, with the page automatically refreshed every 10 minutes)

About weather observations | Map of weather stations | Latest weather observations for WA | Other Formats
Station Details ID: 011003 Name: EUCLA Lat: -31.68 Lon: 128.90 Height: 93.1 m
Data from the previous 72 hours. | See also: Recent months at Eucla
Date/Time
WST
Temp
°C
App
Temp
°C
Dew
Point
Rel
Hum
%
Delta-T
°C
Wind Press
QNH
hPa
Press
MSL
hPa
Rain
since 9 am
mm
Dir
 
Spd
km/h
Gust
km/h
Spd
kts
Gust
kts
24/09:30pm 15.8 12.6 8.3 61 3.8 SE 15 19 8 10 1023.8 1023.6 0.0
24/09:00pm 15.4 12.3 8.9 65 3.3 SE 15 19 8 10 1023.7 1023.5 0.0
24/08:30pm 15.5 12.5 7.5 59 4.0 SE 13 19 7 10 1023.7 1023.5 0.0
24/08:00pm 16.0 12.9 8.7 62 3.7 SSE 15 20 8 11 1023.5 1023.3 0.0
24/07:30pm 16.3 13.3 9.3 63 3.6 SSE 15 26 8 14 1023.3 1023.1 0.0
24/07:00pm 16.4 14.0 10.0 66 3.4 S 13 22 7 12 1023.2 1023.0 0.0
24/06:30pm 16.0 13.5 8.0 59 4.0 S 11 15 6 8 1022.9 1022.7 0.0
24/06:00pm 16.5 13.4 7.4 55 4.5 SSE 13 19 7 10 1022.7 1022.5 0.0
24/05:30pm 17.2 14.2 7.5 53 4.9 S 13 22 7 12 1022.3 1022.1 0.0
24/05:00pm 17.8 14.1 8.1 53 5.0 SSE 17 26 9 14 1021.9 1021.7 0.0
24/04:30pm 17.6 14.1 8.7 56 4.6 S 17 26 9 14 1021.5 1021.3 0.0
24/04:00pm 19.2 16.2 9.4 53 5.2 SSE 15 24 8 13 1021.4 1021.2 0.0
24/03:30pm 18.6 15.1 7.4 48 5.7 S 15 26 8 14 1021.4 1021.2 0.0
24/03:00pm 19.9 16.4 7.3 44 6.4 S 15 22 8 12 1021.4 1021.2 0.0
24/02:30pm 19.5 15.4 6.3 42 6.6 S 17 26 9 14 1021.4 1021.2 0.0
24/02:00pm 20.2 16.3 7.2 43 6.6 S 17 32 9 17 1021.5 1021.3 0.0
24/01:30pm 20.0 16.1 7.1 43 6.6 S 17 35 9 19 1021.5 1021.3 0.0
24/01:00pm 20.6 16.1 6.2 39 7.2 S 19 33 10 18 1021.7 1021.5 0.0
24/12:30pm 20.7 16.0 5.9 38 7.4 S 20 33 11 18 1021.6 1021.4 0.0
24/12:00pm 20.4 16.3 6.4 40 7.0 S 17 30 9 16 1021.6 1021.4 0.0
24/11:30am 20.3 15.7 6.6 41 6.9 S 20 30 11 16 1021.7 1021.5 0.0
24/11:00am 20.3 15.7 6.6 41 6.9 S 20 33 11 18 1021.8 1021.6 0.0
24/10:30am 20.0 15.4 6.4 41 6.8 S 20 32 11 17 1021.9 1021.7 0.0
24/10:00am 20.0 15.7 8.0 46 6.2 S 20 30 11 16 1021.9 1021.7 0.0
24/09:30am 20.2 15.9 7.2 43 6.7 S 19 28 10 15 1021.8 1021.6 0.0
24/09:00am 19.0 14.9 7.8 48 5.7 S 19 33 10 18 1021.8 1021.6 0.0
24/08:30am 19.7 15.6 7.8 46 6.1 S 19 30 10 16 1021.5 1021.3 0.0
24/08:00am 18.7 14.7 8.4 51 5.3 S 19 30 10 16 1021.3 1021.0 0.0
24/07:30am 18.0 13.9 8.6 54 4.9 S 20 30 11 16 1021.1 1020.8 0.0
24/07:00am 18.8 14.7 8.5 51 5.3 S 20 30 11 16 1020.9 1020.6 0.0
24/06:30am 18.3 14.6 8.0 51 5.3 S 17 28 9 15 1020.5 1020.2 0.0
24/06:00am 18.0 14.1 9.4 57 4.5 S 20 30 11 16 1019.9 1019.6 0.0
24/05:30am 17.4 14.0 10.5 64 3.7 S 19 28 10 15 1019.6 1019.3 0.0
24/05:00am 16.2 13.0 9.8 66 3.4 S 17 22 9 12 1019.2 1018.9 0.0
24/04:30am 16.5 13.5 10.6 68 3.2 S 17 28 9 15 1018.7 1018.5 0.0
24/04:00am 16.5 14.4 11.0 70 3.0 S 13 19 7 10 1018.3 1018.1 0.0
24/03:30am 16.1 13.8 10.6 70 2.9 S 13 20 7 11 1018.0 1017.8 0.0
24/03:00am 16.2 12.8 10.7 70 2.9 S 19 30 10 16 1017.8 1017.6 0.0
24/02:30am 16.2 13.3 10.9 71 2.8 S 17 26 9 14 1017.6 1017.4 0.0
24/02:00am 16.0 13.1 11.0 72 2.7 S 17 30 9 16 1017.2 1017.0 0.0
24/01:30am 16.3 13.2 11.5 73 2.6 S 19 28 10 15 1016.7 1016.5 0.0
24/01:00am 16.3 13.2 11.5 73 2.6 S 19 30 10 16 1016.5 1016.3 0.0
24/12:30am 16.9 13.5 12.6 76 2.4 S 22 35 12 19 1016.3 1016.1 0.0
24/12:00am 17.0 12.6 11.7 71 2.9 S 26 41 14 22 1016.4 1016.2 0.0
 
Date/Time
WST
Temp
°C
App
Temp
°C
Dew
Point
Rel
Hum
%
Delta-T
°C
Wind Press
QNH
hPa
Press
MSL
hPa
Rain
since 9 am
mm
Dir
 
Spd
km/h
Gust
km/h
Spd
kts
Gust
kts
23/11:30pm 17.1 13.2 12.2 73 2.7 S 24 44 13 24 1016.3 1016.1 0.0
23/11:00pm 17.1 12.5 12.2 73 2.7 S 28 41 15 22 1016.2 1016.0 0.0
23/10:30pm 17.5 13.1 12.8 74 2.6 S 28 44 15 24 1016.1 1015.9 0.0
23/10:00pm 17.8 14.5 13.9 78 2.2 S 24 39 13 21 1015.9 1015.7 0.0
23/09:30pm 18.1 14.9 14.2 78 2.2 S 24 35 13 19 1015.9 1015.7 0.0
23/09:00pm 18.1 14.4 14.0 77 2.4 S 26 43 14 23 1015.8 1015.6 0.0
23/08:30pm 18.2 15.4 14.3 78 2.3 S 22 35 12 19 1015.4 1015.2 0.0
23/08:00pm 18.1 15.9 15.0 82 1.8 S 20 30 11 16 1014.9 1014.7 0.0
23/07:30pm 18.2 15.9 14.7 80 2.0 S 20 32 11 17 1014.3 1014.1 0.0
23/07:00pm 18.5 16.7 15.4 82 1.8 S 19 30 10 16 1013.9 1013.7 0.0
23/06:30pm 18.3 15.4 15.0 81 1.9 S 24 35 13 19 1013.3 1013.1 0.0
23/06:00pm 18.5 15.3 15.2 81 1.9 S 26 39 14 21 1012.5 1012.3 0.0
23/05:30pm 19.1 15.9 15.4 79 2.2 S 26 39 14 21 1011.8 1011.5 0.0
23/05:00pm 19.5 16.5 15.8 79 2.2 S 26 37 14 20 1011.0 1010.7 0.0
23/04:30pm 19.7 16.9 15.4 76 2.5 S 24 37 13 20 1010.2 1009.9 0.0
23/04:00pm 20.4 16.9 15.6 74 2.9 SSE 28 39 15 21 1009.7 1009.4 0.0
23/03:30pm 20.6 17.6 15.8 74 2.9 S 26 37 14 20 1009.4 1009.1 0.0
23/03:00pm 21.3 18.3 15.8 71 3.3 S 26 33 14 18 1009.3 1009.0 0.0
23/02:30pm 21.7 19.1 15.8 69 3.6 SSE 24 33 13 18 1009.2 1008.9 0.0
23/02:00pm 22.1 19.8 15.7 67 3.9 SSE 22 33 12 18 1009.1 1008.8 0.0
23/01:30pm 22.7 20.1 15.8 65 4.2 SSE 24 33 13 18 1008.9 1008.6 0.0
23/01:00pm 23.0 20.9 15.3 62 4.6 SSE 20 35 11 19 1008.8 1008.5 0.0
23/12:30pm 22.6 19.6 14.7 61 4.7 SE 24 32 13 17 1008.9 1008.6 0.0
23/12:00pm 22.5 19.8 14.6 61 4.7 ESE 22 30 12 16 1009.2 1008.9 0.0
23/11:30am 23.0 19.8 14.3 58 5.1 SSE 24 33 13 18 1009.6 1009.3 0.0
23/11:00am 22.7 20.1 15.0 61 4.6 SSE 22 35 12 19 1009.7 1009.4 0.0
23/10:30am 23.3 20.4 15.1 60 4.9 SE 24 35 13 19 1009.9 1009.6 0.0
23/10:00am 22.4 19.5 14.0 59 4.9 SE 22 32 12 17 1009.9 1009.6 0.0
23/09:30am 22.8 20.1 14.6 60 4.9 SE 22 32 12 17 1010.0 1009.7 0.0
23/09:00am 23.4 20.5 14.1 56 5.5 SE 22 32 12 17 1010.0 1009.7 0.0
23/08:30am 23.7 22.4 14.7 57 5.4 ESE 15 28 8 15 1009.6 1009.3 0.0
23/08:00am 24.1 21.5 13.9 53 6.0 ENE 20 30 11 16 1009.7 1009.4 0.0
23/07:30am 24.5 20.2 9.3 38 8.3 ENE 22 35 12 19 1009.9 1009.6 0.0
23/07:00am 23.1 18.5 9.8 43 7.3 ENE 24 35 13 19 1010.2 1009.9 0.0
23/06:30am 21.6 17.9 11.6 53 5.6 ENE 22 32 12 17 1010.2 1009.9 0.0
23/06:00am 19.6 17.7 13.1 66 3.7 ENE 15 22 8 12 1010.7 1010.4 0.0
23/05:30am 18.0 16.5 14.3 79 2.1 ENE 15 26 8 14 1010.9 1010.6 0.0
23/05:00am 16.3 15.5 14.1 87 1.3 ENE 11 13 6 7 1010.9 1010.6 0.0
23/04:30am 15.1 13.7 13.5 90 0.9 ENE 13 19 7 10 1010.8 1010.5 0.0
23/04:00am 15.0 13.6 13.5 91 0.8 NE 13 19 7 10 1010.8 1010.5 0.0
23/03:30am 14.5 13.7 13.0 91 0.8 NE 9 13 5 7 1010.9 1010.6 0.0
23/03:00am 14.9 14.2 13.3 90 0.9 ENE 9 13 5 7 1010.7 1010.4 0.0
23/02:30am 14.9 14.2 13.1 89 1.0 NE 9 11 5 6 1010.6 1010.3 0.0
23/02:00am 15.3 14.6 13.3 88 1.1 NE 9 11 5 6 1010.6 1010.3 0.0
23/01:30am 15.9 15.3 13.4 85 1.4 E 9 9 5 5 1010.5 1010.2 0.0
23/01:00am 16.5 15.9 13.6 83 1.6 E 9 13 5 7 1010.4 1010.1 0.0
23/12:30am 16.7 15.4 13.6 82 1.8 E 13 20 7 11 1010.4 1010.1 0.0
23/12:00am 17.0 15.3 13.7 81 1.9 E 15 28 8 15 1010.5 1010.2 0.0
 
Date/Time
WST
Temp
°C
App
Temp
°C
Dew
Point
Rel
Hum
%
Delta-T
°C
Wind Press
QNH
hPa
Press
MSL
hPa
Rain
since 9 am
mm
Dir
 
Spd
km/h
Gust
km/h
Spd
kts
Gust
kts
22/11:30pm 17.1 15.8 13.8 81 1.9 E 13 20 7 11 1010.7 1010.4 0.0
22/11:00pm 17.4 15.3 13.7 79 2.1 E 17 26 9 14 1010.7 1010.4 0.0
22/10:30pm 17.4 15.3 13.7 79 2.1 E 17 26 9 14 1010.9 1010.6 0.0
22/10:00pm 17.5 15.3 13.4 77 2.3 ESE 17 26 9 14 1011.0 1010.7 0.0
22/09:30pm 17.6 15.5 13.5 77 2.3 ESE 17 28 9 15 1011.3 1011.0 0.0
22/09:00pm 17.6 15.1 13.5 77 2.3 ESE 19 30 10 16 1011.4 1011.1 0.0
22/08:30pm 17.7 15.2 13.6 77 2.3 ESE 19 30 10 16 1011.4 1011.1 0.0
22/08:00pm 17.8 15.6 13.3 75 2.5 ESE 17 26 9 14 1011.4 1011.1 0.0
22/07:30pm 17.9 15.2 13.0 73 2.8 ESE 19 28 10 15 1011.4 1011.1 0.0
22/07:00pm 18.0 15.0 12.7 71 3.0 SE 20 33 11 18 1011.5 1011.2 0.0
22/06:30pm 18.2 15.3 12.4 69 3.2 SE 19 28 10 15 1011.5 1011.2 0.0
22/06:00pm 18.4 15.4 12.4 68 3.4 SE 20 33 11 18 1011.4 1011.1 0.0
22/05:30pm 19.1 15.5 11.9 63 4.0 SSE 22 35 12 19 1011.2 1010.9 0.0
22/05:00pm 19.8 16.3 13.3 66 3.7 SSE 24 35 13 19 1010.8 1010.5 0.0
22/04:30pm 20.2 17.5 13.4 65 3.9 SE 20 30 11 16 1011.1 1010.8 0.0
22/04:00pm 20.9 18.0 14.1 65 4.0 SSE 22 33 12 18 1011.1 1010.8 0.0
22/03:30pm 21.1 18.2 14.0 64 4.1 SSE 22 32 12 17 1011.4 1011.1 0.0
22/03:00pm 21.4 19.0 14.3 64 4.2 SSE 20 30 11 16 1011.5 1011.2 0.0
22/02:30pm 22.0 19.3 13.6 59 4.9 SSE 20 30 11 16 1011.6 1011.3 0.0
22/02:00pm 22.2 19.7 14.1 60 4.8 SSE 20 30 11 16 1011.7 1011.4 0.0
22/01:30pm 23.3 21.3 13.8 55 5.6 SSE 17 28 9 15 1011.5 1011.2 0.0
22/01:00pm 22.7 20.0 13.5 56 5.4 S 20 32 11 17 1011.4 1011.1 0.0
22/12:30pm 23.5 20.9 13.9 55 5.6 SSE 20 30 11 16 1011.4 1011.1 0.0
22/12:00pm 23.2 20.6 13.1 53 5.8 SSE 19 28 10 15 1011.5 1011.2 0.0
22/11:30am 22.7 20.0 13.5 56 5.3 SSE 20 32 11 17 1011.5 1011.2 0.0
22/11:00am 22.7 19.7 12.6 53 5.8 SSE 20 30 11 16 1011.7 1011.4 0.0
22/10:30am 22.8 20.6 13.3 55 5.5 S 17 30 9 16 1011.9 1011.6 0.0
22/10:00am 23.5 22.1 14.5 57 5.3 SSE 15 24 8 13 1011.9 1011.6 0.0
22/09:30am 23.2 21.4 14.5 58 5.2 S 17 24 9 13 1012.0 1011.7 0.0
22/09:00am 23.0 21.0 14.0 57 5.3 S 17 24 9 13 1011.9 1011.6 0.0
22/08:30am 22.2 21.0 15.1 64 4.2 S 15 24 8 13 1011.8 1011.5 0.0
22/08:00am 22.1 20.9 15.0 64 4.2 S 15 28 8 15 1011.6 1011.3 0.0
22/07:30am 21.5 20.2 14.9 66 3.9 S 15 24 8 13 1011.4 1011.1 0.0
22/07:00am 21.2 20.1 15.3 69 3.5 S 15 22 8 12 1011.1 1010.8 0.0
22/06:30am 20.5 19.8 15.3 72 3.1 S 13 17 7 9 1010.6 1010.3 0.0
22/06:00am 20.0 19.6 15.2 74 2.8 S 11 15 6 8 1010.2 1009.9 0.0
22/05:30am 18.8 18.8 15.1 79 2.2 SSE 9 13 5 7 1009.7 1009.4 0.0
22/05:00am 17.4 17.7 15.0 86 1.4 S 7 9 4 5 1009.3 1009.0 0.0
22/04:30am 15.0 14.5 13.7 92 0.7 SSE 9 11 5 6 1009.1 1008.8 0.0
22/04:00am 15.3 15.1 13.7 90 0.9 SSE 7 9 4 5 1008.7 1008.4 0.0
22/03:30am 15.9 15.5 14.1 89 1.0 SSE 9 9 5 5 1008.4 1008.1 0.0
22/03:00am 16.1 15.7 14.1 88 1.1 SE 9 11 5 6 1008.1 1007.8 0.0
22/02:30am 16.3 15.5 14.1 87 1.3 SSE 11 13 6 7 1008.0 1007.7 0.0
22/02:00am 16.4 15.6 14.1 86 1.3 SSE 11 13 6 7 1008.0 1007.7 0.0
22/01:30am 16.7 15.9 14.0 84 1.5 SE 11 15 6 8 1007.9 1007.6 0.0
22/01:00am 16.9 16.0 13.8 82 1.8 SSE 11 15 6 8 1008.1 1007.8 0.0
22/12:30am 17.0 15.7 13.7 81 1.9 SSE 13 17 7 9 1008.2 1007.9 0.0
22/12:00am 17.2 15.5 13.7 80 2.0 SSE 15 19 8 10 1008.4 1008.1 0.0
 
Date/Time
WST
Temp
°C
App
Temp
°C
Dew
Point
Rel
Hum
%
Delta-T
°C
Wind Press
QNH
hPa
Press
MSL
hPa
Rain
since 9 am
mm
Dir
 
Spd
km/h
Gust
km/h
Spd
kts
Gust
kts
21/11:30pm 17.4 15.4 13.9 80 2.0 SSE 17 26 9 14 1008.5 1008.2 0.0
21/11:00pm 17.7 15.7 13.8 78 2.2 SSE 17 26 9 14 1008.6 1008.3 0.0
21/10:30pm 17.8 15.2 13.9 78 2.2 S 20 30 11 16 1008.9 1008.6 0.0
21/10:00pm 18.0 15.1 13.9 77 2.4 S 22 33 12 18 1009.0 1008.7 0.0

Other Formats:

Comma delimited format used in spreadsheet applications
http://www.bom.gov.au/fwo/IDW60801/IDW60801.94647.axf

JavaScript Object Notation format (JSON) in row-major order
http://www.bom.gov.au/fwo/IDW60801/IDW60801.94647.json